Time;durP1;ratioP1;P1;durP2;ratioP2;P2;SDS_P1;SDS_P2;PMS_P1;PMS_P2;Temp;Humidity;BMP_temperature;BMP_pressure;BME280_temperature;BME280_humidity;BME280_pressure;Samples;Min_cycle;Max_cycle;Signal;HPM_P1;HPM_P2
2021/01/11 00:02:19;;;;;;;37.10;17.77;;;;;;;-8.63;74.34;96840.06;5062260;28;20064;-69
2021/01/11 00:04:45;;;;;;;44.50;18.70;;;;;;;-8.60;74.12;96837.06;5054100;28;20045;-70
2021/01/11 00:07:12;;;;;;;45.88;18.83;;;;;;;-8.60;73.76;96842.34;5056021;28;20120;-70
2021/01/11 00:09:39;;;;;;;39.65;17.48;;;;;;;-8.57;73.94;96839.31;5057056;28;20041;-69
2021/01/11 00:12:05;;;;;;;43.35;18.92;;;;;;;-8.55;73.28;96832.88;5060089;28;20086;-70
2021/01/11 00:14:31;;;;;;;44.53;19.80;;;;;;;-8.56;73.20;96835.69;5057156;28;20045;-69
2021/01/11 00:16:57;;;;;;;44.53;18.15;;;;;;;-8.57;73.16;96836.69;5060483;28;20040;-69
2021/01/11 00:19:23;;;;;;;43.90;18.33;;;;;;;-8.57;72.76;96836.69;5057593;28;20051;-69
2021/01/11 00:21:50;;;;;;;40.92;19.00;;;;;;;-8.57;72.94;96831.41;5059376;28;20049;-69
2021/01/11 00:24:16;;;;;;;37.50;17.33;;;;;;;-8.54;72.81;96842.41;5058262;28;20037;-69
2021/01/11 00:26:49;;;;;;;37.97;17.40;;;;;;;-8.52;72.75;96840.41;5060505;28;20068;-70
2021/01/11 00:29:15;;;;;;;39.35;16.98;;;;;;;-8.48;72.64;96844.31;5054044;28;20037;-69
2021/01/11 00:31:41;;;;;;;40.40;18.42;;;;;;;-8.44;72.57;96839.50;5056087;28;20570;-70
2021/01/11 00:34:07;;;;;;;35.08;16.42;;;;;;;-8.40;72.63;96840.75;5060167;28;20045;-70
2021/01/11 00:36:33;;;;;;;41.17;17.13;;;;;;;-8.37;72.82;96843.00;5054589;28;20059;-69
2021/01/11 00:38:59;;;;;;;38.75;17.55;;;;;;;-8.32;72.07;96842.41;5064400;28;20469;-70
2021/01/11 00:41:26;;;;;;;38.80;17.13;;;;;;;-8.30;70.99;96837.75;5061008;28;20118;-69
2021/01/11 00:43:52;;;;;;;42.97;17.17;;;;;;;-8.30;70.30;96841.25;5055777;28;20041;-69
2021/01/11 00:46:22;;;;;;;40.00;17.38;;;;;;;-8.31;69.63;96838.75;5059013;28;20040;-69
2021/01/11 00:48:48;;;;;;;40.67;16.30;;;;;;;-8.32;69.27;96834.50;5056138;28;20048;-70
2021/01/11 00:51:14;;;;;;;40.38;17.30;;;;;;;-8.40;68.89;96840.75;5061171;28;20048;-70
2021/01/11 00:53:40;;;;;;;40.72;18.40;;;;;;;-8.42;68.81;96829.53;5056948;28;20048;-70
2021/01/11 00:56:06;;;;;;;42.95;17.38;;;;;;;-8.52;69.04;96831.66;5062959;28;20095;-69
2021/01/11 00:58:32;;;;;;;44.40;18.52;;;;;;;-8.63;70.18;96829.50;5054716;28;20115;-69
2021/01/11 01:00:59;;;;;;;42.17;17.67;;;;;;;-8.65;70.91;96836.81;5056488;28;20044;-70
2021/01/11 01:03:25;;;;;;;41.10;18.88;;;;;;;-8.68;71.63;96844.09;5062307;28;20137;-70
2021/01/11 01:05:51;;;;;;;50.28;19.02;;;;;;;-8.81;72.24;96843.94;5058901;28;20492;-70
2021/01/11 01:08:17;;;;;;;51.70;19.75;;;;;;;-8.78;72.65;96843.56;5067069;28;20457;-69
2021/01/11 01:10:42;;;;;;;49.90;19.58;;;;;;;-8.73;72.85;96849.09;5068446;28;20454;-70
2021/01/11 01:13:08;;;;;;;55.28;21.83;;;;;;;-8.69;73.01;96847.72;5053106;28;20508;-70
2021/01/11 01:15:34;;;;;;;49.03;20.00;;;;;;;-8.60;73.30;96851.09;5053608;28;20511;-69
2021/01/11 01:18:01;;;;;;;44.67;19.35;;;;;;;-8.54;73.15;96849.53;5057120;28;20041;-69
2021/01/11 01:20:27;;;;;;;45.72;18.98;;;;;;;-8.51;73.15;96850.00;5061498;28;20099;-70
2021/01/11 01:22:53;;;;;;;50.17;18.75;;;;;;;-8.48;72.42;96848.78;5055723;28;20120;-70
2021/01/11 01:25:19;;;;;;;47.42;19.20;;;;;;;-8.49;71.55;96847.16;5036848;28;578344;-70
2021/01/11 01:27:45;;;;;;;46.75;19.63;;;;;;;-8.46;71.28;96852.84;5058649;28;20560;-69
2021/01/11 01:30:13;;;;;;;55.00;20.65;;;;;;;-8.42;71.33;96850.66;5060799;28;20124;-69
2021/01/11 01:32:40;;;;;;;48.13;19.52;;;;;;;-8.42;71.96;96851.50;5062771;28;20044;-69
2021/01/11 01:35:08;;;;;;;58.05;20.85;;;;;;;-8.41;72.40;96849.66;5059921;28;20091;-69
2021/01/11 01:37:34;;;;;;;52.20;21.17;;;;;;;-8.46;73.23;96844.13;5063429;28;20045;-69
2021/01/11 01:40:00;;;;;;;52.08;21.30;;;;;;;-8.46;73.13;96846.75;5057847;28;20055;-70
2021/01/11 01:42:26;;;;;;;49.97;19.75;;;;;;;-8.46;73.43;96837.00;5061947;28;20091;-70
2021/01/11 01:44:52;;;;;;;49.10;19.50;;;;;;;-8.42;73.53;96837.47;5062032;28;20075;-69
2021/01/11 01:47:18;;;;;;;51.05;18.60;;;;;;;-8.41;73.84;96839.91;5053422;28;20063;-69
2021/01/11 01:49:44;;;;;;;49.08;18.55;;;;;;;-8.34;73.57;96839.16;5056654;28;20515;-70
2021/01/11 01:52:12;;;;;;;54.50;20.02;;;;;;;-8.34;73.63;96834.69;5059123;28;20049;-69
2021/01/11 01:54:40;;;;;;;43.95;18.42;;;;;;;-8.36;73.83;96843.81;5060062;28;20044;-70
2021/01/11 01:57:06;;;;;;;54.17;18.77;;;;;;;-8.38;73.77;96836.09;5049426;28;20131;-69
2021/01/11 01:59:32;;;;;;;48.78;18.92;;;;;;;-8.38;73.92;96832.63;5056162;28;20435;-70
2021/01/11 02:02:00;;;;;;;45.90;19.80;;;;;;;-8.37;74.15;96834.25;5064366;28;20120;-69
2021/01/11 02:04:26;;;;;;;47.70;19.60;;;;;;;-8.35;74.10;96832.22;5052695;28;20049;-69
2021/01/11 02:06:57;;;;;;;66.93;17.98;;;;;;;-8.35;74.08;96826.94;5054428;28;20056;-69
2021/01/11 02:09:33;;;;;;;46.35;19.77;;;;;;;-8.33;74.03;96832.88;5058019;28;20483;-69
2021/01/11 02:12:07;;;;;;;44.20;19.25;;;;;;;-8.30;74.19;96829.81;5053385;28;20430;-70
2021/01/11 02:14:48;;;;;;;45.75;18.60;;;;;;;-8.31;74.29;96821.09;5061180;28;20041;-70
2021/01/11 02:17:19;;;;;;;44.78;17.70;;;;;;;-8.39;74.21;96815.97;5057722;28;20040;-69
2021/01/11 02:20:27;;;;;;;69.38;19.02;;;;;;;-8.46;74.40;96820.34;5053925;28;20044;-69
2021/01/11 02:23:08;;;;;;;47.30;17.65;;;;;;;-8.50;74.63;96821.75;5059726;28;20033;-70
2021/01/11 02:25:53;;;;;;;59.17;18.42;;;;;;;-8.55;74.72;96822.31;5056242;28;20041;-70
2021/01/11 02:28:43;;;;;;;60.40;19.67;;;;;;;-8.56;74.38;96819.84;5060594;28;20040;-69
2021/01/11 02:31:11;;;;;;;61.42;19.15;;;;;;;-8.57;74.57;96820.84;5066760;28;20056;-69
2021/01/11 02:33:37;;;;;;;45.00;18.20;;;;;;;-8.58;74.68;96814.75;5067902;28;20072;-70
2021/01/11 02:36:06;;;;;;;67.55;18.42;;;;;;;-8.55;74.62;96810.94;5063634;28;20410;-69
2021/01/11 02:38:33;;;;;;;68.85;19.38;;;;;;;-8.58;74.45;96816.56;5059750;28;20153;-70
2021/01/11 02:40:59;;;;;;;54.72;20.05;;;;;;;-8.72;74.36;96807.69;5055957;28;20066;-69
2021/01/11 02:43:25;;;;;;;52.40;20.60;;;;;;;-8.75;74.42;96811.53;5052981;28;20052;-69
2021/01/11 02:45:51;;;;;;;54.53;19.48;;;;;;;-8.79;74.72;96812.88;5054172;28;20052;-69
2021/01/11 02:48:22;;;;;;;59.60;18.85;;;;;;;-8.76;74.50;96809.88;5053245;28;20036;-70
2021/01/11 02:50:59;;;;;;;45.00;19.23;;;;;;;-8.72;74.81;96811.16;5051759;28;20143;-69
2021/01/11 02:53:32;;;;;;;73.20;19.13;;;;;;;-8.65;74.96;96811.22;5068086;28;20052;-69
2021/01/11 02:56:02;;;;;;;68.25;19.63;;;;;;;-8.71;75.24;96807.50;5068005;28;20048;-70
2021/01/11 02:58:59;;;;;;;58.13;21.38;;;;;;;-8.77;75.92;96816.19;5054334;28;20041;-70
2021/01/11 03:01:29;;;;;;;60.08;21.10;;;;;;;-8.81;76.14;96817.53;5068723;28;20045;-69
2021/01/11 03:03:56;;;;;;;87.43;22.52;;;;;;;-8.93;76.35;96819.00;5067837;28;20388;-70
2021/01/11 03:06:30;;;;;;;67.05;20.85;;;;;;;-8.95;76.41;96821.84;5058135;28;20066;-70
2021/01/11 03:09:02;;;;;;;72.35;21.40;;;;;;;-8.92;76.63;96825.94;5059388;28;20498;-69
2021/01/11 03:11:28;;;;;;;78.90;20.88;;;;;;;-8.89;76.72;96825.56;5057068;28;20388;-69
2021/01/11 03:13:53;;;;;;;60.75;21.55;;;;;;;-8.88;76.77;96831.66;5062935;28;20071;-70
2021/01/11 03:16:19;;;;;;;58.08;22.10;;;;;;;-8.78;76.55;96824.25;5054551;28;20119;-70
2021/01/11 03:18:45;;;;;;;54.33;21.80;;;;;;;-8.67;76.43;96824.59;5053427;28;20103;-69
2021/01/11 03:21:12;;;;;;;52.17;19.70;;;;;;;-8.60;76.30;96829.97;5048864;28;20044;-70
2021/01/11 03:23:38;;;;;;;53.00;20.10;;;;;;;-8.51;76.29;96820.94;5056395;28;20048;-70
2021/01/11 03:26:04;;;;;;;52.95;21.30;;;;;;;-8.40;76.37;96824.91;5055196;28;20052;-69
2021/01/11 03:28:30;;;;;;;109.07;19.55;;;;;;;-8.49;75.72;96833.94;5056378;28;20056;-69
2021/01/11 03:30:56;;;;;;;57.83;18.42;;;;;;;-8.56;75.89;96830.41;5065514;28;20604;-70
2021/01/11 03:33:22;;;;;;;54.67;18.30;;;;;;;-8.64;75.89;96827.88;5062647;28;20049;-69
2021/01/11 03:35:48;;;;;;;45.17;17.30;;;;;;;-8.56;75.80;96825.13;5053726;28;20123;-69
2021/01/11 03:38:15;;;;;;;55.95;17.40;;;;;;;-8.55;75.98;96824.13;5066840;28;20036;-69
2021/01/11 03:40:41;;;;;;;45.15;17.83;;;;;;;-8.57;75.69;96828.75;5059063;28;20052;-69
2021/01/11 03:43:07;;;;;;;41.30;17.38;;;;;;;-8.68;75.42;96827.44;5055747;28;20457;-70
2021/01/11 03:45:33;;;;;;;50.33;17.83;;;;;;;-8.71;75.75;96819.91;5057880;28;20132;-69
2021/01/11 03:47:59;;;;;;;46.53;17.95;;;;;;;-8.73;75.70;96819.25;5056430;28;20523;-70
2021/01/11 03:50:25;;;;;;;87.47;17.88;;;;;;;-8.75;75.85;96819.44;5064475;28;20145;-69
2021/01/11 03:52:51;;;;;;;50.05;16.85;;;;;;;-8.81;76.13;96827.28;5063988;28;20499;-70
2021/01/11 03:55:18;;;;;;;58.25;15.98;;;;;;;-8.89;76.43;96822.91;5053343;28;20098;-69
2021/01/11 03:57:44;;;;;;;70.53;16.40;;;;;;;-8.83;76.73;96821.34;5057050;28;20049;-69
2021/01/11 04:00:11;;;;;;;52.42;16.20;;;;;;;-8.84;76.65;96823.19;5053093;28;20076;-70
2021/01/11 04:02:37;;;;;;;48.38;15.07;;;;;;;-8.88;76.69;96816.63;5060297;28;20488;-69
2021/01/11 04:05:03;;;;;;;72.63;16.33;;;;;;;-8.85;76.62;96818.09;5053250;28;20045;-69
2021/01/11 04:07:29;;;;;;;43.85;16.88;;;;;;;-8.78;76.91;96817.16;5054760;28;20532;-69
2021/01/11 04:09:55;;;;;;;50.85;16.52;;;;;;;-8.79;77.09;96814.72;5057574;28;20068;-69
2021/01/11 04:12:22;;;;;;;52.28;15.98;;;;;;;-8.75;77.28;96811.53;5058558;28;20052;-70
2021/01/11 04:14:48;;;;;;;62.65;17.42;;;;;;;-8.63;77.29;96803.94;5060254;28;20043;-70
2021/01/11 04:17:16;;;;;;;73.85;15.98;;;;;;;-8.78;76.81;96796.03;5050403;28;20068;-70
2021/01/11 04:19:42;;;;;;;40.72;15.90;;;;;;;-8.69;77.11;96802.84;5054889;28;20507;-69
2021/01/11 04:22:08;;;;;;;42.35;14.00;;;;;;;-8.64;77.02;96804.94;5054599;28;20115;-70
2021/01/11 04:24:34;;;;;;;42.40;14.82;;;;;;;-8.56;77.21;96798.72;5055710;28;20045;-69
2021/01/11 04:27:00;;;;;;;46.67;16.45;;;;;;;-8.50;77.19;96798.81;5056510;28;20133;-70
2021/01/11 04:29:27;;;;;;;37.85;16.88;;;;;;;-8.43;77.10;96799.69;5060263;28;20136;-69
2021/01/11 04:31:53;;;;;;;71.07;15.75;;;;;;;-8.50;76.40;96793.53;5061883;28;20045;-69
2021/01/11 04:34:19;;;;;;;51.38;16.92;;;;;;;-8.44;76.04;96797.22;5066565;28;20044;-69
2021/01/11 04:36:45;;;;;;;46.08;16.60;;;;;;;-8.56;76.00;96798.72;5062472;28;20067;-69
2021/01/11 04:39:11;;;;;;;45.30;16.17;;;;;;;-8.50;76.13;96808.56;5063853;28;20045;-70
2021/01/11 04:41:43;;;;;;;41.78;17.40;;;;;;;-8.38;76.24;96804.41;5062543;28;20072;-70
2021/01/11 04:44:11;;;;;;;42.45;16.95;;;;;;;-8.30;76.34;96809.53;5057798;28;20052;-69
2021/01/11 04:46:39;;;;;;;44.28;15.63;;;;;;;-8.25;75.56;96807.13;5061821;28;20048;-69
2021/01/11 04:49:05;;;;;;;49.20;17.42;;;;;;;-8.21;75.13;96803.09;5059929;28;20052;-68
2021/01/11 04:51:32;;;;;;;40.03;15.63;;;;;;;-8.19;74.55;96802.94;5062364;28;20511;-70
2021/01/11 04:53:59;;;;;;;45.10;16.55;;;;;;;-8.19;74.22;96795.81;5062275;28;20045;-70
2021/01/11 04:56:26;;;;;;;47.60;16.95;;;;;;;-8.16;74.49;96800.72;5058857;28;20045;-69
2021/01/11 04:58:55;;;;;;;44.72;18.00;;;;;;;-8.15;74.52;96794.41;5055887;28;20049;-69
2021/01/11 05:01:23;;;;;;;44.47;17.25;;;;;;;-8.10;74.69;96795.69;5060896;28;20047;-69
2021/01/11 05:03:51;;;;;;;49.22;17.60;;;;;;;-8.02;74.86;96803.50;5055056;28;20111;-70
2021/01/11 05:06:17;;;;;;;44.92;16.98;;;;;;;-7.94;75.17;96803.34;5061999;28;20045;-69
2021/01/11 05:08:43;;;;;;;51.05;18.33;;;;;;;-7.86;75.43;96800.56;5058758;28;20056;-70
2021/01/11 05:11:09;;;;;;;45.10;16.45;;;;;;;-7.76;75.62;96794.97;5058445;28;20059;-70
2021/01/11 05:13:35;;;;;;;45.88;16.95;;;;;;;-7.71;74.65;96803.94;5058050;28;20049;-69
2021/01/11 05:16:10;;;;;;;43.90;16.40;;;;;;;-7.70;74.41;96810.88;5052635;28;20111;-70
2021/01/11 05:18:36;;;;;;;39.15;15.48;;;;;;;-7.73;73.60;96811.22;5064350;28;20044;-69
2021/01/11 05:21:02;;;;;;;51.67;17.52;;;;;;;-7.72;73.80;96801.50;5059572;28;20118;-70
2021/01/11 05:23:34;;;;;;;35.00;13.65;;;;;;;-7.71;74.13;96803.94;5058400;28;20576;-70
2021/01/11 05:26:11;;;;;;;47.20;14.57;;;;;;;-7.65;74.73;96805.81;5068352;28;20059;-69
2021/01/11 05:28:37;;;;;;;51.03;15.32;;;;;;;-7.62;75.46;96802.81;5065876;28;20044;-69
2021/01/11 05:31:03;;;;;;;49.75;15.63;;;;;;;-7.58;75.68;96799.75;5054796;28;20052;-69
2021/01/11 05:33:29;;;;;;;43.80;15.57;;;;;;;-7.56;76.16;96805.69;5069422;28;20041;-69
2021/01/11 05:36:05;;;;;;;51.45;16.95;;;;;;;-7.48;76.08;96810.81;5060662;28;20162;-69
2021/01/11 05:38:34;;;;;;;57.15;21.30;;;;;;;-7.44;75.79;96820.00;5054441;28;20037;-69
2021/01/11 05:41:12;;;;;;;44.38;15.48;;;;;;;-7.41;76.02;96822.28;5055940;28;20377;-69
2021/01/11 05:43:38;;;;;;;45.90;15.07;;;;;;;-7.40;76.26;96829.19;5066997;28;20041;-69
2021/01/11 05:46:21;;;;;;;45.80;15.80;;;;;;;-7.34;76.39;96831.06;5069701;28;20040;-69
2021/01/11 05:48:56;;;;;;;41.13;14.30;;;;;;;-7.28;76.56;96840.88;5067633;28;20048;-69
2021/01/11 05:51:24;;;;;;;52.42;17.40;;;;;;;-7.21;76.62;96836.41;5068717;28;20048;-69
2021/01/11 05:53:50;;;;;;;49.10;18.55;;;;;;;-7.15;76.29;96833.03;5059802;28;20502;-69
2021/01/11 05:56:16;;;;;;;48.28;15.35;;;;;;;-7.11;75.79;96836.88;5058284;28;20052;-70
2021/01/11 05:58:42;;;;;;;49.47;16.65;;;;;;;-7.05;75.79;96839.75;5058383;28;20435;-70
2021/01/11 06:01:08;;;;;;;50.60;16.48;;;;;;;-7.01;75.75;96849.78;5055793;28;20048;-70
2021/01/11 06:03:34;;;;;;;51.95;17.63;;;;;;;-6.96;75.99;96857.94;5070951;28;20090;-70
2021/01/11 06:06:01;;;;;;;50.92;18.42;;;;;;;-6.97;75.41;96855.50;5060051;28;20049;-70
2021/01/11 06:08:29;;;;;;;55.63;17.17;;;;;;;-6.95;75.55;96845.53;5057838;28;20041;-70
2021/01/11 06:10:58;;;;;;;50.05;16.65;;;;;;;-6.95;74.93;96851.63;5056625;28;20048;-70
2021/01/11 06:13:24;;;;;;;46.92;18.38;;;;;;;-6.94;74.85;96847.16;5051866;28;20060;-69
2021/01/11 06:15:51;;;;;;;50.28;16.63;;;;;;;-6.92;74.81;96845.16;5050728;28;20049;-69
2021/01/11 06:18:17;;;;;;;57.08;17.23;;;;;;;-6.91;74.64;96839.66;5053151;28;20048;-69
2021/01/11 06:20:45;;;;;;;48.97;15.60;;;;;;;-6.96;74.47;96838.59;5057208;28;20612;-69
2021/01/11 06:23:12;;;;;;;67.82;15.85;;;;;;;-7.00;74.41;96838.16;5056150;28;20044;-69
2021/01/11 06:25:46;;;;;;;50.45;15.88;;;;;;;-7.04;74.36;96839.59;5057746;28;20162;-70
2021/01/11 06:28:13;;;;;;;48.80;15.63;;;;;;;-7.08;74.51;96841.00;5056482;28;20119;-69
2021/01/11 06:30:44;;;;;;;60.58;17.52;;;;;;;-7.08;74.43;96840.19;5060449;28;20105;-69
2021/01/11 06:33:13;;;;;;;41.65;15.23;;;;;;;-7.11;74.31;96836.88;5063634;28;20047;-69
2021/01/11 06:35:41;;;;;;;49.35;15.80;;;;;;;-7.07;74.24;96841.81;5053975;28;20049;-70
2021/01/11 06:38:18;;;;;;;57.83;16.17;;;;;;;-7.04;74.10;96836.13;5052114;28;20056;-70
2021/01/11 06:40:46;;;;;;;53.30;16.15;;;;;;;-7.01;74.18;96841.00;5049341;28;20048;-69
2021/01/11 06:43:14;;;;;;;56.38;16.88;;;;;;;-6.99;74.27;96839.00;5048879;28;20049;-70
2021/01/11 06:45:42;;;;;;;44.00;14.98;;;;;;;-7.01;73.86;96843.66;5050034;28;20053;-69
2021/01/11 06:48:12;;;;;;;50.05;16.77;;;;;;;-6.99;74.46;96845.13;5050296;28;20053;-70
2021/01/11 06:50:38;;;;;;;55.03;17.13;;;;;;;-7.01;74.51;96851.59;5049562;28;20060;-69
2021/01/11 06:53:05;;;;;;;52.97;16.15;;;;;;;-7.03;74.31;96843.06;5049173;28;20092;-69
2021/01/11 06:55:32;;;;;;;45.40;15.57;;;;;;;-7.06;74.60;96846.09;5050456;28;20124;-69
2021/01/11 06:57:59;;;;;;;45.13;16.05;;;;;;;-7.03;75.01;96849.16;5049819;28;20463;-69
2021/01/11 07:00:30;;;;;;;46.80;16.60;;;;;;;-6.96;75.04;96849.19;5050517;28;20122;-69
2021/01/11 07:02:57;;;;;;;54.92;18.13;;;;;;;-6.89;75.68;96850.03;5068123;28;20048;-69
2021/01/11 07:05:45;;;;;;;48.78;15.70;;;;;;;-6.81;75.52;96854.38;5070156;28;20090;-70
2021/01/11 07:08:15;;;;;;;42.53;15.68;;;;;;;-6.79;75.36;96863.72;5069286;28;20122;-69
2021/01/11 07:10:42;;;;;;;49.47;16.05;;;;;;;-6.74;75.62;96863.97;5070438;28;20056;-69
2021/01/11 07:13:26;;;;;;;49.60;16.23;;;;;;;-6.72;75.25;96867.25;5069755;28;20040;-70
2021/01/11 07:16:13;;;;;;;46.83;16.65;;;;;;;-6.67;75.60;96864.84;5069630;28;20041;-69
2021/01/11 07:18:53;;;;;;;47.20;16.92;;;;;;;-6.61;75.66;96874.63;5070315;28;20044;-70
2021/01/11 07:21:22;;;;;;;45.17;16.52;;;;;;;-6.55;75.72;96877.50;5069502;28;20048;-69
2021/01/11 07:23:48;;;;;;;43.60;15.02;;;;;;;-6.60;74.95;96886.84;5070373;28;20450;-69
2021/01/11 07:26:17;;;;;;;49.30;17.20;;;;;;;-6.54;75.13;96879.13;5069604;28;20040;-70
2021/01/11 07:28:54;;;;;;;48.08;15.40;;;;;;;-6.48;74.99;96883.63;5069824;28;20061;-70
2021/01/11 07:31:25;;;;;;;56.65;15.85;;;;;;;-6.42;75.00;96888.16;5068368;28;20047;-69
2021/01/11 07:34:05;;;;;;;49.55;16.80;;;;;;;-6.39;75.15;96895.72;5069526;28;20098;-69
2021/01/11 07:36:36;;;;;;;53.30;16.73;;;;;;;-6.33;75.03;96902.88;5062497;28;20596;-73
2021/01/11 07:39:10;;;;;;;52.03;15.63;;;;;;;-6.33;74.71;96908.97;5068949;28;20094;-74
2021/01/11 07:41:38;;;;;;;54.88;17.63;;;;;;;-6.28;74.83;96911.03;5069972;28;20053;-74
2021/01/11 07:44:13;;;;;;;48.60;15.82;;;;;;;-6.21;74.98;96911.06;5068336;28;20551;-74
2021/01/11 07:46:39;;;;;;;67.28;20.80;;;;;;;-6.19;74.62;96904.56;5069653;28;20499;-74
2021/01/11 07:49:13;;;;;;;62.83;20.05;;;;;;;-6.17;74.65;96901.69;5069884;28;20048;-74
2021/01/11 07:51:40;;;;;;;56.25;19.90;;;;;;;-6.14;74.28;96896.81;5069431;28;20051;-74
2021/01/11 07:54:08;;;;;;;61.45;18.83;;;;;;;-6.09;74.16;96894.41;5071667;28;20067;-75
2021/01/11 07:56:34;;;;;;;58.55;19.55;;;;;;;-6.03;74.55;96891.97;5073528;28;20127;-74
2021/01/11 07:59:04;;;;;;;58.50;18.45;;;;;;;-6.03;74.68;96897.25;5073606;28;20447;-75
2021/01/11 08:01:31;;;;;;;59.38;19.08;;;;;;;-5.97;75.08;96896.47;5071575;28;20090;-74
2021/01/11 08:03:57;;;;;;;56.35;19.38;;;;;;;-5.92;75.09;96899.31;5073756;28;20068;-74
2021/01/11 08:06:24;;;;;;;65.43;19.92;;;;;;;-5.89;74.66;96893.59;5073155;28;20040;-74
2021/01/11 08:08:53;;;;;;;61.42;19.48;;;;;;;-5.86;74.05;96899.31;5073288;28;20055;-74
2021/01/11 08:11:20;;;;;;;58.35;19.10;;;;;;;-5.87;73.93;96904.81;5073252;28;20054;-74
2021/01/11 08:13:47;;;;;;;62.50;19.58;;;;;;;-5.92;73.38;96899.31;5072875;28;20044;-74
2021/01/11 08:16:14;;;;;;;56.75;18.17;;;;;;;-5.86;73.45;96904.59;5073420;28;20074;-73
2021/01/11 08:18:42;;;;;;;61.90;19.27;;;;;;;-5.84;73.71;96907.06;5072453;28;20051;-74
2021/01/11 08:21:09;;;;;;;53.33;18.88;;;;;;;-5.84;73.96;96897.28;5072930;28;20415;-75
2021/01/11 08:23:36;;;;;;;51.83;18.05;;;;;;;-5.77;73.89;96895.44;5072976;28;20072;-74
2021/01/11 08:26:06;;;;;;;57.67;19.45;;;;;;;-5.74;74.11;96896.06;5072502;28;20044;-74
2021/01/11 08:28:33;;;;;;;56.95;18.88;;;;;;;-5.82;73.36;96900.53;5072896;28;20045;-73
2021/01/11 08:31:01;;;;;;;59.38;18.90;;;;;;;-5.93;73.70;96909.13;5070993;28;20045;-74
2021/01/11 08:33:28;;;;;;;55.65;18.60;;;;;;;-5.97;74.32;96901.75;5073024;28;20529;-75
2021/01/11 08:36:19;;;;;;;58.15;17.67;;;;;;;-5.91;74.86;96896.44;5072140;28;20083;-74
2021/01/11 08:39:10;;;;;;;57.92;18.05;;;;;;;-5.94;74.23;96898.72;5073465;28;20048;-74
2021/01/11 08:41:38;;;;;;;55.47;18.55;;;;;;;-5.98;74.23;96903.59;5072551;28;20135;-74
2021/01/11 08:44:05;;;;;;;54.97;17.73;;;;;;;-6.05;73.81;96908.91;5072191;28;20051;-74
2021/01/11 08:46:53;;;;;;;53.38;17.08;;;;;;;-6.08;73.69;96917.22;5073246;28;20052;-74
2021/01/11 08:49:20;;;;;;;57.78;17.10;;;;;;;-6.15;74.01;96921.72;5071677;28;20044;-74
2021/01/11 08:51:48;;;;;;;53.22;16.67;;;;;;;-6.12;74.07;96916.00;5072053;28;20514;-74
2021/01/11 08:54:28;;;;;;;54.45;17.60;;;;;;;-6.06;74.38;96924.97;5071363;28;20071;-74
2021/01/11 08:56:55;;;;;;;55.00;18.17;;;;;;;-6.26;74.08;96924.94;5073134;28;20664;-74
2021/01/11 08:59:22;;;;;;;61.40;18.58;;;;;;;-6.33;74.44;96929.38;5070367;28;20064;-74
2021/01/11 09:01:48;;;;;;;82.97;20.50;;;;;;;-6.73;75.54;96923.03;5070765;28;20053;-74
2021/01/11 09:04:29;;;;;;;69.53;20.65;;;;;;;-6.76;76.47;96929.56;5071325;28;20494;-73
2021/01/11 09:07:01;;;;;;;70.03;20.25;;;;;;;-6.70;76.95;96934.06;5092188;28;20465;-73
2021/01/11 09:09:30;;;;;;;69.53;19.55;;;;;;;-6.63;77.04;96924.34;5092607;28;20122;-74
2021/01/11 09:12:04;;;;;;;60.50;17.98;;;;;;;-6.58;77.17;96929.03;5091920;28;20048;-74
2021/01/11 09:14:31;;;;;;;72.07;20.67;;;;;;;-6.50;77.13;96928.06;5073919;28;20036;-74
2021/01/11 09:17:01;;;;;;;62.78;19.65;;;;;;;-6.45;77.33;96939.72;5089525;28;20048;-75
2021/01/11 09:19:27;;;;;;;62.20;19.25;;;;;;;-6.29;77.29;96935.91;5091521;28;20078;-74
2021/01/11 09:22:00;;;;;;;53.03;17.02;;;;;;;-6.18;76.70;96945.94;5074417;28;20052;-73
2021/01/11 09:24:26;;;;;;;58.80;18.77;;;;;;;-6.10;76.91;96945.78;5090896;28;20044;-74
2021/01/11 09:26:53;;;;;;;59.65;19.35;;;;;;;-5.98;76.92;96946.03;5092527;28;20274;-74
2021/01/11 09:29:19;;;;;;;66.22;18.65;;;;;;;-5.87;76.94;96949.91;5090495;28;20514;-74
2021/01/11 09:31:46;;;;;;;55.60;17.40;;;;;;;-5.78;76.51;96948.72;5091200;28;20614;-74
2021/01/11 09:34:12;;;;;;;61.33;17.67;;;;;;;-5.69;76.08;96950.16;5090395;28;20036;-75
2021/01/11 09:36:39;;;;;;;57.63;16.45;;;;;;;-5.74;75.11;96947.31;5092176;28;20127;-74
2021/01/11 09:39:08;;;;;;;46.30;15.75;;;;;;;-5.76;75.06;96957.28;5090730;28;20085;-74
2021/01/11 09:41:40;;;;;;;58.05;16.88;;;;;;;-5.68;75.55;96954.44;5082991;28;20050;-74
2021/01/11 09:44:06;;;;;;;60.92;16.83;;;;;;;-5.63;75.31;96946.72;5090687;28;20101;-74
2021/01/11 09:46:45;;;;;;;44.80;16.55;;;;;;;-5.55;75.70;96949.16;5080237;28;20055;-73
2021/01/11 09:49:11;;;;;;;60.88;17.38;;;;;;;-5.45;75.80;96951.41;5091480;28;20044;-74
2021/01/11 09:51:37;;;;;;;46.83;17.23;;;;;;;-5.37;75.61;96950.41;5090820;28;20052;-74
2021/01/11 09:54:05;;;;;;;54.63;18.02;;;;;;;-5.27;75.37;96945.53;5091570;28;20074;-74
2021/01/11 09:56:33;;;;;;;51.10;17.60;;;;;;;-5.30;75.57;96948.56;5090957;28;20048;-73
2021/01/11 09:59:00;;;;;;;68.07;17.85;;;;;;;-5.29;74.83;96950.22;5091759;28;20052;-74
2021/01/11 10:01:44;;;;;;;51.47;16.60;;;;;;;-5.24;74.73;96937.13;5089136;28;20078;-74
2021/01/11 10:04:12;;;;;;;60.88;18.67;;;;;;;-5.15;75.01;96943.88;5090321;28;20518;-73
2021/01/11 10:06:42;;;;;;;54.88;18.00;;;;;;;-5.15;75.40;96940.41;5091460;28;20070;-74
2021/01/11 10:09:10;;;;;;;53.30;18.50;;;;;;;-5.12;75.67;96943.47;5090186;28;20559;-74
2021/01/11 10:11:37;;;;;;;55.17;17.58;;;;;;;-4.99;76.04;96948.78;5091509;28;20052;-73
2021/01/11 10:14:04;;;;;;;57.58;17.92;;;;;;;-4.96;75.44;96936.09;5090048;28;20052;-74
2021/01/11 10:16:30;;;;;;;54.60;18.27;;;;;;;-5.01;74.39;96936.75;5090686;28;20389;-73
2021/01/11 10:18:56;;;;;;;51.88;19.10;;;;;;;-4.97;74.65;96924.66;5090723;28;20044;-73
2021/01/11 10:21:22;;;;;;;61.80;19.25;;;;;;;-4.90;75.19;96930.00;5090374;28;20075;-73
2021/01/11 10:23:48;;;;;;;51.25;17.33;;;;;;;-4.84;75.19;96927.31;5091017;28;20040;-73
2021/01/11 10:26:16;;;;;;;61.50;18.38;;;;;;;-4.69;74.83;96931.59;5089749;28;20044;-73
2021/01/11 10:28:43;;;;;;;59.10;19.42;;;;;;;-4.66;74.86;96926.66;5091164;28;20040;-74
2021/01/11 10:31:09;;;;;;;57.25;17.73;;;;;;;-4.63;75.02;96926.25;5088134;28;20047;-74
2021/01/11 10:33:35;;;;;;;57.15;18.00;;;;;;;-4.65;74.88;96922.97;5091237;28;20059;-74
2021/01/11 10:36:01;;;;;;;47.88;16.77;;;;;;;-4.60;74.90;96903.75;5089678;28;20040;-74
2021/01/11 10:38:27;;;;;;;53.00;17.50;;;;;;;-4.60;74.32;96899.25;5084717;28;20046;-74
2021/01/11 10:40:53;;;;;;;72.07;20.10;;;;;;;-4.62;73.73;96901.31;5089562;28;20044;-73
2021/01/11 10:43:20;;;;;;;54.40;18.15;;;;;;;-4.60;73.46;96901.91;5090525;28;20097;-73
2021/01/11 10:45:50;;;;;;;53.25;18.42;;;;;;;-4.65;73.87;96904.38;5089790;28;20047;-74
2021/01/11 10:48:17;;;;;;;55.92;19.23;;;;;;;-4.60;73.92;96899.25;5089692;28;20048;-74
2021/01/11 10:50:43;;;;;;;53.35;18.13;;;;;;;-4.69;73.88;96900.53;5090384;28;20077;-74
2021/01/11 10:53:10;;;;;;;54.50;17.40;;;;;;;-4.76;73.86;96905.03;5088986;28;20058;-74
2021/01/11 10:55:36;;;;;;;52.95;17.98;;;;;;;-4.79;74.20;96886.84;5090750;28;20461;-74
2021/01/11 10:58:02;;;;;;;50.85;17.42;;;;;;;-4.70;74.84;96893.56;5089410;28;20115;-73
2021/01/11 11:00:28;;;;;;;59.53;19.42;;;;;;;-4.59;74.79;96890.28;5090669;28;20135;-75
2021/01/11 11:02:57;;;;;;;57.53;18.05;;;;;;;-4.54;74.98;96882.50;5088001;28;20052;-74
2021/01/11 11:05:23;;;;;;;51.75;17.40;;;;;;;-4.60;74.40;96882.50;5089975;28;20047;-74
2021/01/11 11:07:50;;;;;;;53.42;18.58;;;;;;;-4.60;74.61;96875.34;5089897;28;20570;-74
2021/01/11 11:10:16;;;;;;;61.28;18.23;;;;;;;-4.55;74.10;96864.06;5089654;28;20489;-73
2021/01/11 11:12:44;;;;;;;52.85;19.45;;;;;;;-4.50;74.17;96867.75;5089654;28;20044;-73
2021/01/11 11:15:12;;;;;;;54.85;19.60;;;;;;;-4.50;73.79;96857.09;5077608;28;20056;-73
2021/01/11 11:17:38;;;;;;;55.05;19.33;;;;;;;-4.48;73.65;96859.56;5086815;28;20048;-73
2021/01/11 11:20:07;;;;;;;60.58;20.20;;;;;;;-4.37;73.86;96850.13;5085987;28;20959;-73
2021/01/11 11:22:33;;;;;;;51.58;18.95;;;;;;;-4.34;73.75;96844.38;5087126;28;20048;-73
2021/01/11 11:25:05;;;;;;;52.17;19.20;;;;;;;-4.54;73.08;96850.59;5086047;28;20502;-73